AGGN/GZO METAR and TAF weather

Enter ICAO airport designator
Station Type Date Time Source
AGGN METAR UTC NOAA

Error!


Station Type Date Time Source
AGGN Decoded METAR UTC NOAA

Error!

Station Type Date Time Source
AGGN TAF 2021/03/10 18:10 UTC NOAA

TAF AGGN 101710Z 1018/1118 05010KT 9999 SCT018 PROB30 INTER 1101/1106 5000 TSSH BKN015 FEW016CB

Example: see airport list